Time;durP1;ratioP1;P1;durP2;ratioP2;P2;SDS_P1;SDS_P2;PMS_P1;PMS_P2;Temp;Humidity;BMP_temperature;BMP_pressure;BME280_temperature;BME280_humidity;BME280_pressure;Samples;Min_cycle;Max_cycle;Signal;HPM_P1;HPM_P2
2023/04/11 00:00:09;;;;;;;7.72;4.78;;;;;;;;;;5055635;28;20025;-76
2023/04/11 00:02:37;;;;;;;6.50;4.55;;;;;;;;;;5055042;28;20028;-77
2023/04/11 00:05:06;;;;;;;5.97;4.20;;;;;;;;;;5055402;28;20036;-77
2023/04/11 00:07:31;;;;;;;5.70;4.18;;;;;;;;;;5054974;28;20484;-76
2023/04/11 00:09:57;;;;;;;7.22;3.95;;;;;;;;;;5054749;28;20033;-77
2023/04/11 00:12:22;;;;;;;5.85;3.97;;;;;;;;;;5054628;28;20074;-77
2023/04/11 00:14:47;;;;;;;6.63;4.20;;;;;;;;;;5054907;28;20067;-76
2023/04/11 00:17:14;;;;;;;7.65;3.92;;;;;;;;;;5053450;28;20079;-76
2023/04/11 00:19:42;;;;;;;5.88;4.10;;;;;;;;;;5054662;28;20048;-77
2023/04/11 00:22:08;;;;;;;5.82;4.20;;;;;;;;;;5054711;28;20028;-77
2023/04/11 00:24:33;;;;;;;6.90;4.28;;;;;;;;;;5054675;28;20028;-78
2023/04/11 00:27:00;;;;;;;5.68;4.07;;;;;;;;;;5053546;28;20070;-78
2023/04/11 00:29:25;;;;;;;6.45;4.10;;;;;;;;;;5054654;28;20090;-77
2023/04/11 00:31:51;;;;;;;4.85;3.70;;;;;;;;;;5054523;28;20108;-76
2023/04/11 00:34:17;;;;;;;5.05;3.90;;;;;;;;;;5053157;28;20032;-77
2023/04/11 00:36:42;;;;;;;5.18;3.60;;;;;;;;;;5052911;28;20021;-76
2023/04/11 00:39:10;;;;;;;5.13;3.80;;;;;;;;;;5054176;28;20044;-77
2023/04/11 00:41:35;;;;;;;5.82;4.03;;;;;;;;;;5054139;28;20031;-77
2023/04/11 00:44:00;;;;;;;5.85;3.80;;;;;;;;;;5054486;28;20025;-77
2023/04/11 00:46:26;;;;;;;5.17;3.73;;;;;;;;;;5053136;28;20032;-76
2023/04/11 00:48:52;;;;;;;6.47;3.88;;;;;;;;;;5054178;28;20258;-77
2023/04/11 00:51:18;;;;;;;5.60;3.72;;;;;;;;;;5054345;28;20021;-76
2023/04/11 00:53:44;;;;;;;8.00;3.88;;;;;;;;;;5052799;28;20385;-77
2023/04/11 00:56:10;;;;;;;6.75;3.80;;;;;;;;;;5053952;28;20045;-76
2023/04/11 00:58:37;;;;;;;6.00;4.15;;;;;;;;;;5053953;28;20068;-76
2023/04/11 01:01:07;;;;;;;6.82;4.10;;;;;;;;;;5053845;28;20025;-76
2023/04/11 01:03:37;;;;;;;6.07;4.05;;;;;;;;;;5052602;28;20020;-77
2023/04/11 01:06:08;;;;;;;5.80;3.97;;;;;;;;;;5054062;28;20024;-77
2023/04/11 01:08:34;;;;;;;5.90;4.18;;;;;;;;;;5054260;28;20033;-77
2023/04/11 01:11:01;;;;;;;7.15;4.35;;;;;;;;;;5053507;28;20079;-77
2023/04/11 01:13:29;;;;;;;6.40;4.10;;;;;;;;;;5053731;28;20032;-77
2023/04/11 01:15:54;;;;;;;5.93;4.25;;;;;;;;;;5054003;28;20021;-77
2023/04/11 01:18:20;;;;;;;4.75;3.63;;;;;;;;;;5052758;28;20032;-77
2023/04/11 01:20:45;;;;;;;7.10;4.63;;;;;;;;;;5054088;28;20029;-77
2023/04/11 01:23:12;;;;;;;5.95;4.18;;;;;;;;;;5053718;28;20036;-77
2023/04/11 01:25:37;;;;;;;6.50;4.18;;;;;;;;;;5053791;28;20021;-77
2023/04/11 01:28:03;;;;;;;6.18;4.25;;;;;;;;;;5053641;28;20028;-76
2023/04/11 01:30:28;;;;;;;6.35;4.00;;;;;;;;;;5053384;28;20036;-77
2023/04/11 01:32:53;;;;;;;6.60;4.35;;;;;;;;;;5053180;28;20083;-76
2023/04/11 01:35:19;;;;;;;6.20;3.93;;;;;;;;;;5053577;28;20411;-76
2023/04/11 01:37:44;;;;;;;6.57;3.95;;;;;;;;;;5053682;28;20602;-76
2023/04/11 01:40:10;;;;;;;8.40;4.60;;;;;;;;;;5053123;28;20103;-76
2023/04/11 01:42:37;;;;;;;5.97;4.25;;;;;;;;;;5053120;28;20068;-76
2023/04/11 01:45:05;;;;;;;7.30;4.45;;;;;;;;;;5053730;28;20020;-77
2023/04/11 01:47:30;;;;;;;5.53;4.15;;;;;;;;;;5053288;28;20100;-77
2023/04/11 01:49:55;;;;;;;6.35;4.30;;;;;;;;;;5053479;28;20511;-77
2023/04/11 01:52:21;;;;;;;6.87;4.10;;;;;;;;;;5053106;28;20035;-76
2023/04/11 01:54:46;;;;;;;6.67;4.33;;;;;;;;;;5053145;28;20258;-77
2023/04/11 01:57:11;;;;;;;6.17;4.03;;;;;;;;;;5053422;28;20368;-77
2023/04/11 01:59:36;;;;;;;6.57;4.43;;;;;;;;;;5053539;28;20268;-76
2023/04/11 02:02:02;;;;;;;6.57;4.20;;;;;;;;;;5052050;28;20265;-76
2023/04/11 02:04:27;;;;;;;6.78;4.45;;;;;;;;;;5053493;28;20024;-76
2023/04/11 02:06:52;;;;;;;6.22;4.15;;;;;;;;;;5053905;28;20028;-76
2023/04/11 02:09:18;;;;;;;5.63;3.60;;;;;;;;;;5053121;28;20107;-77
2023/04/11 02:11:43;;;;;;;5.65;3.47;;;;;;;;;;5053141;28;20032;-77
2023/04/11 02:14:08;;;;;;;6.72;4.10;;;;;;;;;;5051653;28;20055;-77
2023/04/11 02:16:48;;;;;;;7.73;4.37;;;;;;;;;;5051485;28;20143;-77
2023/04/11 02:19:14;;;;;;;6.47;4.00;;;;;;;;;;5053177;28;20254;-77
2023/04/11 02:21:39;;;;;;;6.90;3.75;;;;;;;;;;5052934;28;20021;-77
2023/04/11 02:24:04;;;;;;;5.50;3.85;;;;;;;;;;5051780;28;20031;-77
2023/04/11 02:26:30;;;;;;;5.90;4.10;;;;;;;;;;5051736;28;20025;-77
2023/04/11 02:28:55;;;;;;;5.82;3.90;;;;;;;;;;5052783;28;20028;-76
2023/04/11 02:31:20;;;;;;;6.17;3.70;;;;;;;;;;5053054;28;20017;-77
2023/04/11 02:33:45;;;;;;;8.00;3.83;;;;;;;;;;5056010;28;20294;-76
2023/04/11 02:36:11;;;;;;;7.37;3.83;;;;;;;;;;5057078;28;20025;-77
2023/04/11 02:38:36;;;;;;;9.07;3.72;;;;;;;;;;5056788;28;20254;-77
2023/04/11 02:41:02;;;;;;;7.00;3.90;;;;;;;;;;5057070;28;20017;-77
2023/04/11 02:43:28;;;;;;;7.18;4.15;;;;;;;;;;5056176;28;20070;-76
2023/04/11 02:45:53;;;;;;;6.90;3.92;;;;;;;;;;5057418;28;20017;-77
2023/04/11 02:48:18;;;;;;;7.43;4.00;;;;;;;;;;5055274;28;20021;-77
2023/04/11 02:50:43;;;;;;;8.30;3.70;;;;;;;;;;5055054;28;20257;-77
2023/04/11 02:53:09;;;;;;;5.00;3.55;;;;;;;;;;5056285;28;20071;-77
2023/04/11 02:55:34;;;;;;;5.72;3.90;;;;;;;;;;5056492;28;20025;-75
2023/04/11 02:57:59;;;;;;;6.10;4.10;;;;;;;;;;5056942;28;20025;-77
2023/04/11 03:00:25;;;;;;;9.03;4.03;;;;;;;;;;5056306;28;20269;-77
2023/04/11 03:02:50;;;;;;;9.30;4.00;;;;;;;;;;5056024;28;20266;-76
2023/04/11 03:05:15;;;;;;;6.93;3.92;;;;;;;;;;5055980;28;20542;-76
2023/04/11 03:07:40;;;;;;;10.63;4.00;;;;;;;;;;5054620;28;20032;-76
2023/04/11 03:10:06;;;;;;;8.18;3.88;;;;;;;;;;5054757;28;20028;-77
2023/04/11 03:12:32;;;;;;;6.10;3.63;;;;;;;;;;5055782;28;20029;-77
2023/04/11 03:14:57;;;;;;;6.53;4.00;;;;;;;;;;5056154;28;20025;-77
2023/04/11 03:17:22;;;;;;;8.60;3.67;;;;;;;;;;5056077;28;20301;-76
2023/04/11 03:19:47;;;;;;;6.37;3.70;;;;;;;;;;5055906;28;20613;-76
2023/04/11 03:22:12;;;;;;;16.40;4.20;;;;;;;;;;5055575;28;20254;-76
2023/04/11 03:24:38;;;;;;;6.40;3.97;;;;;;;;;;5055913;28;20250;-76
2023/04/11 03:27:04;;;;;;;5.95;3.85;;;;;;;;;;5055975;28;20029;-77
2023/04/11 03:29:29;;;;;;;7.32;3.67;;;;;;;;;;5055555;28;20476;-77
2023/04/11 03:31:54;;;;;;;7.13;3.75;;;;;;;;;;5055516;28;20028;-77
2023/04/11 03:34:20;;;;;;;5.50;3.50;;;;;;;;;;5055691;28;20024;-76
2023/04/11 03:36:45;;;;;;;5.75;3.80;;;;;;;;;;5053959;28;20035;-76
2023/04/11 03:39:11;;;;;;;5.85;3.42;;;;;;;;;;5055596;28;20405;-76
2023/04/11 03:41:36;;;;;;;5.93;3.80;;;;;;;;;;5055559;28;20398;-76
2023/04/11 03:44:01;;;;;;;6.37;4.30;;;;;;;;;;5055351;28;20459;-78
2023/04/11 03:46:27;;;;;;;6.03;4.05;;;;;;;;;;5055172;28;20293;-77
2023/04/11 03:48:52;;;;;;;6.50;4.00;;;;;;;;;;5055283;28;20021;-76
2023/04/11 03:51:17;;;;;;;4.60;3.37;;;;;;;;;;5054018;28;20025;-77
2023/04/11 03:53:42;;;;;;;7.30;3.83;;;;;;;;;;5055636;28;20317;-77
2023/04/11 03:56:08;;;;;;;7.90;4.80;;;;;;;;;;5055796;28;20472;-76
2023/04/11 03:58:34;;;;;;;6.90;4.43;;;;;;;;;;5055354;28;20024;-76
2023/04/11 04:01:01;;;;;;;6.45;4.45;;;;;;;;;;5055374;28;20036;-77
2023/04/11 04:03:26;;;;;;;7.28;4.35;;;;;;;;;;5055664;28;20020;-78
2023/04/11 04:05:52;;;;;;;7.70;4.53;;;;;;;;;;5055450;28;20469;-77
2023/04/11 04:08:17;;;;;;;6.60;4.30;;;;;;;;;;5054994;28;20055;-76
2023/04/11 04:10:42;;;;;;;8.67;4.50;;;;;;;;;;5055160;28;20250;-76
2023/04/11 04:13:07;;;;;;;6.38;4.43;;;;;;;;;;5054694;28;20261;-77
2023/04/11 04:15:33;;;;;;;7.63;4.70;;;;;;;;;;5054716;28;20024;-76
2023/04/11 04:17:58;;;;;;;8.15;4.43;;;;;;;;;;5054829;28;20257;-77
2023/04/11 04:20:23;;;;;;;6.57;4.18;;;;;;;;;;5054998;28;20075;-77
2023/04/11 04:22:48;;;;;;;6.78;4.40;;;;;;;;;;5054647;28;20063;-77
2023/04/11 04:25:15;;;;;;;9.37;5.10;;;;;;;;;;5055280;28;20025;-77
2023/04/11 04:27:43;;;;;;;8.10;4.88;;;;;;;;;;5054729;28;20617;-77
2023/04/11 04:30:10;;;;;;;12.20;5.03;;;;;;;;;;5054768;28;20056;-78
2023/04/11 04:32:35;;;;;;;8.73;4.95;;;;;;;;;;5054709;28;20032;-77
2023/04/11 04:35:01;;;;;;;10.20;5.20;;;;;;;;;;5054375;28;20036;-77
2023/04/11 04:37:26;;;;;;;8.52;5.03;;;;;;;;;;5054214;28;20071;-77
2023/04/11 04:40:07;;;;;;;9.23;4.72;;;;;;;;;;5054298;28;20021;-77
2023/04/11 04:42:34;;;;;;;7.88;5.38;;;;;;;;;;5054133;28;20021;-76
2023/04/11 04:44:59;;;;;;;8.38;4.90;;;;;;;;;;5054544;28;20028;-77
2023/04/11 04:47:32;;;;;;;10.20;5.43;;;;;;;;;;5053624;28;20108;-77
2023/04/11 04:49:58;;;;;;;6.95;4.95;;;;;;;;;;5054213;28;20254;-77
2023/04/11 04:52:25;;;;;;;8.88;5.57;;;;;;;;;;5054121;28;20150;-78
2023/04/11 04:54:51;;;;;;;7.65;4.97;;;;;;;;;;5053608;28;20021;-76
2023/04/11 04:57:16;;;;;;;8.88;5.57;;;;;;;;;;5052463;28;20029;-77
2023/04/11 04:59:43;;;;;;;8.55;5.70;;;;;;;;;;5054546;28;20112;-78
2023/04/11 05:02:08;;;;;;;9.07;5.78;;;;;;;;;;5054132;28;20576;-78
2023/04/11 05:04:34;;;;;;;10.02;6.03;;;;;;;;;;5054438;28;20112;-77
2023/04/11 05:07:00;;;;;;;12.18;6.22;;;;;;;;;;5058839;28;20042;-77
2023/04/11 05:09:25;;;;;;;8.05;5.25;;;;;;;;;;5058946;28;20116;-76
2023/04/11 05:11:50;;;;;;;9.03;5.67;;;;;;;;;;5056502;28;20076;-77
2023/04/11 05:14:16;;;;;;;9.77;5.78;;;;;;;;;;5053684;28;20272;-76
2023/04/11 05:16:42;;;;;;;11.25;6.07;;;;;;;;;;5053480;28;20033;-76
2023/04/11 05:19:07;;;;;;;9.25;6.13;;;;;;;;;;5053662;28;20150;-77
2023/04/11 05:21:33;;;;;;;9.52;5.78;;;;;;;;;;5053644;28;20065;-79
2023/04/11 05:23:58;;;;;;;9.48;5.88;;;;;;;;;;5053784;28;20029;-77
2023/04/11 05:26:23;;;;;;;9.00;5.90;;;;;;;;;;5053379;28;20021;-77
2023/04/11 05:28:49;;;;;;;10.38;6.05;;;;;;;;;;5053404;28;20250;-77
2023/04/11 05:31:15;;;;;;;8.88;5.20;;;;;;;;;;5053635;28;20028;-77
2023/04/11 05:33:42;;;;;;;9.02;5.55;;;;;;;;;;5052425;28;20056;-77
2023/04/11 05:36:07;;;;;;;13.70;5.35;;;;;;;;;;5052359;28;20025;-77
2023/04/11 05:38:33;;;;;;;7.95;5.00;;;;;;;;;;5053842;28;20075;-76
2023/04/11 05:40:59;;;;;;;9.23;5.22;;;;;;;;;;5053536;28;20025;-77
2023/04/11 05:43:24;;;;;;;6.25;4.57;;;;;;;;;;5051956;28;20032;-77
2023/04/11 05:45:49;;;;;;;12.00;5.10;;;;;;;;;;5053711;28;20020;-77
2023/04/11 05:48:18;;;;;;;7.85;5.30;;;;;;;;;;5053394;28;20369;-77
2023/04/11 05:50:43;;;;;;;7.47;5.03;;;;;;;;;;5053672;28;20024;-77
2023/04/11 05:53:09;;;;;;;6.82;4.65;;;;;;;;;;5053475;28;20029;-77
2023/04/11 05:55:35;;;;;;;8.00;5.03;;;;;;;;;;5052058;28;20017;-77
2023/04/11 05:58:00;;;;;;;9.13;5.63;;;;;;;;;;5053666;28;20261;-77
2023/04/11 06:00:29;;;;;;;8.68;5.68;;;;;;;;;;5053556;28;20028;-77
2023/04/11 06:03:00;;;;;;;10.57;5.93;;;;;;;;;;5057137;28;20032;-77
2023/04/11 06:05:30;;;;;;;9.43;6.18;;;;;;;;;;5070754;28;20025;-77
2023/04/11 06:07:55;;;;;;;9.40;6.13;;;;;;;;;;5066458;28;20028;-77
2023/04/11 06:10:20;;;;;;;9.27;5.85;;;;;;;;;;5057230;28;20017;-77
2023/04/11 06:12:45;;;;;;;7.93;5.43;;;;;;;;;;5057082;28;20044;-77
2023/04/11 06:15:12;;;;;;;7.93;5.03;;;;;;;;;;5058124;28;20341;-77
2023/04/11 06:17:37;;;;;;;8.80;5.38;;;;;;;;;;5059188;28;20025;-77
2023/04/11 06:20:05;;;;;;;9.60;5.15;;;;;;;;;;5058187;28;20025;-78
2023/04/11 06:22:30;;;;;;;8.45;5.35;;;;;;;;;;5056167;28;20027;-77
2023/04/11 06:24:55;;;;;;;8.70;5.30;;;;;;;;;;5057051;28;20029;-77
2023/04/11 06:27:21;;;;;;;10.07;6.40;;;;;;;;;;5056881;28;20115;-77
2023/04/11 06:29:46;;;;;;;10.07;5.82;;;;;;;;;;5056917;28;20294;-76
2023/04/11 06:32:11;;;;;;;10.10;6.13;;;;;;;;;;5055518;28;20055;-76
2023/04/11 06:34:40;;;;;;;10.35;6.78;;;;;;;;;;5056788;28;20265;-77
2023/04/11 06:37:06;;;;;;;10.70;6.32;;;;;;;;;;5056508;28;20029;-77
2023/04/11 06:39:31;;;;;;;10.95;6.47;;;;;;;;;;5056528;28;20031;-76
2023/04/11 06:41:56;;;;;;;9.88;6.20;;;;;;;;;;5056545;28;20402;-77
2023/04/11 06:44:22;;;;;;;15.40;6.93;;;;;;;;;;5056350;28;20463;-77
2023/04/11 06:46:47;;;;;;;12.35;6.82;;;;;;;;;;5056462;28;20024;-76
2023/04/11 06:49:12;;;;;;;12.73;6.75;;;;;;;;;;5056539;28;20021;-76
2023/04/11 06:51:37;;;;;;;9.63;5.90;;;;;;;;;;5056373;28;20079;-78
2023/04/11 06:54:03;;;;;;;12.10;6.07;;;;;;;;;;5057283;28;20273;-77
2023/04/11 06:56:28;;;;;;;11.88;6.90;;;;;;;;;;5055863;28;20025;-78
2023/04/11 06:58:54;;;;;;;11.15;6.57;;;;;;;;;;5056690;28;20028;-77
2023/04/11 07:01:24;;;;;;;9.73;6.32;;;;;;;;;;5056491;28;20025;-78
2023/04/11 07:03:52;;;;;;;13.38;6.38;;;;;;;;;;5056094;28;20021;-77
2023/04/11 07:06:19;;;;;;;10.98;6.07;;;;;;;;;;5056051;28;20056;-77
2023/04/11 07:08:45;;;;;;;11.77;6.45;;;;;;;;;;5056411;28;20025;-77
2023/04/11 07:11:10;;;;;;;11.02;6.13;;;;;;;;;;5055929;28;20511;-77
2023/04/11 07:13:36;;;;;;;8.98;6.00;;;;;;;;;;5056110;28;20025;-77
2023/04/11 07:16:01;;;;;;;8.35;5.28;;;;;;;;;;5056019;28;20056;-77
2023/04/11 07:18:26;;;;;;;10.07;5.40;;;;;;;;;;5058280;28;20025;-78
2023/04/11 07:20:52;;;;;;;9.87;5.53;;;;;;;;;;5056000;28;20056;-77
2023/04/11 07:23:17;;;;;;;7.25;4.60;;;;;;;;;;5054568;28;20269;-76
2023/04/11 07:25:43;;;;;;;8.98;4.10;;;;;;;;;;5056600;28;20056;-76
2023/04/11 07:28:10;;;;;;;6.22;3.80;;;;;;;;;;5058166;28;20085;-77
2023/04/11 07:30:35;;;;;;;5.65;3.65;;;;;;;;;;5058202;28;20029;-77
2023/04/11 07:33:02;;;;;;;5.78;3.63;;;;;;;;;;5056952;28;20502;-78
2023/04/11 07:35:27;;;;;;;6.03;3.17;;;;;;;;;;5057000;28;20032;-76
2023/04/11 07:37:55;;;;;;;5.40;3.00;;;;;;;;;;5056697;28;20025;-78
2023/04/11 07:40:20;;;;;;;5.05;3.25;;;;;;;;;;5055737;28;20024;-78
2023/04/11 07:42:46;;;;;;;5.95;3.00;;;;;;;;;;5055367;28;20498;-77
2023/04/11 07:45:11;;;;;;;6.38;2.85;;;;;;;;;;5056156;28;20079;-77
2023/04/11 07:47:36;;;;;;;3.53;2.73;;;;;;;;;;5055930;28;20021;-78
2023/04/11 07:50:03;;;;;;;4.13;2.72;;;;;;;;;;5057240;28;20261;-77
2023/04/11 07:52:28;;;;;;;5.05;3.10;;;;;;;;;;5054563;28;20053;-77
2023/04/11 07:54:53;;;;;;;4.07;2.70;;;;;;;;;;5057947;28;20028;-76
2023/04/11 07:57:18;;;;;;;3.97;2.67;;;;;;;;;;5056698;28;20070;-78
2023/04/11 07:59:45;;;;;;;4.27;2.57;;;;;;;;;;5056365;28;20020;-78
2023/04/11 08:02:10;;;;;;;4.63;2.63;;;;;;;;;;5055361;28;20254;-77
2023/04/11 08:04:36;;;;;;;3.70;2.30;;;;;;;;;;5054600;28;20059;-77
2023/04/11 08:07:02;;;;;;;5.10;2.45;;;;;;;;;;5054384;28;20159;-77
2023/04/11 08:09:27;;;;;;;3.85;2.10;;;;;;;;;;5056127;28;20029;-78
2023/04/11 08:11:53;;;;;;;3.20;2.13;;;;;;;;;;5054318;28;20036;-77
2023/04/11 08:14:18;;;;;;;5.60;2.47;;;;;;;;;;5054149;28;20499;-77
2023/04/11 08:16:44;;;;;;;4.43;2.60;;;;;;;;;;5055286;28;20060;-79
2023/04/11 08:19:10;;;;;;;3.78;2.13;;;;;;;;;;5057318;28;20105;-78
2023/04/11 08:21:35;;;;;;;3.17;2.10;;;;;;;;;;5057004;28;20021;-79
2023/04/11 08:24:00;;;;;;;3.42;2.38;;;;;;;;;;5057843;28;20020;-78
2023/04/11 08:26:26;;;;;;;2.67;2.07;;;;;;;;;;5054573;28;20021;-78
2023/04/11 08:28:51;;;;;;;4.40;1.98;;;;;;;;;;5056844;28;20257;-80
2023/04/11 08:31:16;;;;;;;2.67;2.10;;;;;;;;;;5057195;28;20021;-78
2023/04/11 08:33:41;;;;;;;4.43;1.90;;;;;;;;;;5054923;28;20494;-77
2023/04/11 08:36:08;;;;;;;3.67;2.00;;;;;;;;;;5056617;28;20029;-79
2023/04/11 08:38:34;;;;;;;3.08;1.98;;;;;;;;;;5056591;28;20027;-78
2023/04/11 08:41:00;;;;;;;2.80;1.80;;;;;;;;;;5055758;28;20021;-77
2023/04/11 08:43:25;;;;;;;2.80;2.00;;;;;;;;;;5055650;28;20036;-79
2023/04/11 08:45:50;;;;;;;4.72;2.20;;;;;;;;;;5056493;28;20396;-77
2023/04/11 08:48:15;;;;;;;2.67;1.42;;;;;;;;;;5055124;28;20469;-77
2023/04/11 08:50:43;;;;;;;2.97;1.42;;;;;;;;;;5054324;28;20025;-76
2023/04/11 08:53:08;;;;;;;2.83;1.77;;;;;;;;;;5054856;28;20480;-79
2023/04/11 08:55:33;;;;;;;3.78;1.77;;;;;;;;;;5055737;28;20050;-78
2023/04/11 08:58:00;;;;;;;3.08;1.90;;;;;;;;;;5055136;28;20107;-78
2023/04/11 09:00:27;;;;;;;3.15;1.83;;;;;;;;;;5054229;28;20098;-78
2023/04/11 09:03:02;;;;;;;2.30;1.52;;;;;;;;;;5055559;28;20104;-79
2023/04/11 09:05:30;;;;;;;3.28;1.70;;;;;;;;;;5055707;28;20361;-78
2023/04/11 09:07:57;;;;;;;3.10;1.85;;;;;;;;;;5054434;28;20029;-78
2023/04/11 09:10:23;;;;;;;4.05;1.60;;;;;;;;;;5053744;28;20114;-77
2023/04/11 09:12:49;;;;;;;5.13;1.50;;;;;;;;;;5054609;28;20033;-78
2023/04/11 09:15:24;;;;;;;3.53;1.50;;;;;;;;;;5055379;28;20541;-78
2023/04/11 09:17:51;;;;;;;2.72;1.60;;;;;;;;;;5054949;28;20029;-78
2023/04/11 09:20:26;;;;;;;5.00;1.40;;;;;;;;;;5055002;28;20048;-78
2023/04/11 09:22:52;;;;;;;3.00;1.48;;;;;;;;;;5054669;28;20028;-77
2023/04/11 09:25:19;;;;;;;2.45;1.70;;;;;;;;;;5055387;28;20083;-78
2023/04/11 09:27:45;;;;;;;2.17;1.27;;;;;;;;;;5057207;28;20031;-78
2023/04/11 09:30:22;;;;;;;4.43;1.50;;;;;;;;;;5057797;28;20115;-78
2023/04/11 09:32:51;;;;;;;3.67;1.30;;;;;;;;;;5054778;28;20031;-78
2023/04/11 09:35:19;;;;;;;2.88;1.35;;;;;;;;;;5056749;28;20032;-79
2023/04/11 09:37:47;;;;;;;4.50;1.55;;;;;;;;;;5055775;28;20092;-78
2023/04/11 09:40:13;;;;;;;3.80;1.20;;;;;;;;;;5057602;28;20075;-78
2023/04/11 09:42:40;;;;;;;1.98;1.23;;;;;;;;;;5057332;28;20070;-78
2023/04/11 09:45:15;;;;;;;4.20;1.30;;;;;;;;;;5055847;28;20189;-77
2023/04/11 09:47:40;;;;;;;2.25;1.10;;;;;;;;;;5055440;28;20013;-78
2023/04/11 09:50:06;;;;;;;3.47;1.20;;;;;;;;;;5057982;28;20098;-78
2023/04/11 09:52:32;;;;;;;5.22;1.20;;;;;;;;;;5054494;28;20327;-78
2023/04/11 09:54:58;;;;;;;5.25;1.20;;;;;;;;;;5056802;28;20025;-79
2023/04/11 09:57:24;;;;;;;2.88;1.17;;;;;;;;;;5056495;28;20033;-79
2023/04/11 09:59:51;;;;;;;2.15;1.05;;;;;;;;;;5058046;28;20060;-78
2023/04/11 10:02:16;;;;;;;3.53;1.30;;;;;;;;;;5056961;28;20487;-78
2023/04/11 10:04:42;;;;;;;3.57;1.50;;;;;;;;;;5058199;28;20025;-78
2023/04/11 10:07:12;;;;;;;4.45;1.40;;;;;;;;;;5056162;28;20285;-79
2023/04/11 10:09:40;;;;;;;3.88;1.30;;;;;;;;;;5053870;28;20025;-79
2023/04/11 10:12:06;;;;;;;1.92;1.17;;;;;;;;;;5053493;28;20049;-78
2023/04/11 10:14:37;;;;;;;4.50;1.30;;;;;;;;;;5053968;28;20029;-79
2023/04/11 10:17:10;;;;;;;3.25;1.50;;;;;;;;;;5054011;28;20025;-77
2023/04/11 10:19:36;;;;;;;5.65;1.50;;;;;;;;;;5052703;28;20107;-78
2023/04/11 10:22:01;;;;;;;3.70;1.27;;;;;;;;;;5052909;28;20053;-78
2023/04/11 10:24:26;;;;;;;3.95;1.30;;;;;;;;;;5054580;28;20021;-78
2023/04/11 10:27:02;;;;;;;2.73;1.07;;;;;;;;;;5054533;28;20025;-78
2023/04/11 10:29:32;;;;;;;2.97;1.10;;;;;;;;;;5052996;28;20270;-78
2023/04/11 10:32:10;;;;;;;4.75;1.30;;;;;;;;;;5053592;28;20102;-78
2023/04/11 10:34:37;;;;;;;3.38;1.25;;;;;;;;;;5054450;28;20029;-78
2023/04/11 10:37:09;;;;;;;3.50;1.30;;;;;;;;;;5054263;28;20491;-78
2023/04/11 10:39:52;;;;;;;4.80;1.52;;;;;;;;;;5055017;28;20025;-77
2023/04/11 10:42:30;;;;;;;6.00;1.60;;;;;;;;;;5052859;28;20392;-77
2023/04/11 10:45:27;;;;;;;2.38;1.27;;;;;;;;;;5054568;28;20423;-79
2023/04/11 10:47:55;;;;;;;8.43;1.45;;;;;;;;;;5054609;28;20032;-78
2023/04/11 10:50:24;;;;;;;4.75;1.38;;;;;;;;;;5054634;28;20032;-78
2023/04/11 10:52:49;;;;;;;4.97;1.30;;;;;;;;;;5054254;28;20060;-78
2023/04/11 10:55:15;;;;;;;5.38;1.33;;;;;;;;;;5058918;28;20025;-78
2023/04/11 10:58:10;;;;;;;3.08;1.50;;;;;;;;;;5059222;28;20489;-78
2023/04/11 11:01:11;;;;;;;3.40;1.10;;;;;;;;;;5058571;28;20024;-78
2023/04/11 11:03:37;;;;;;;4.63;1.60;;;;;;;;;;5057144;28;20055;-77
2023/04/11 11:06:07;;;;;;;3.08;1.15;;;;;;;;;;5057607;28;20488;-79
2023/04/11 11:08:34;;;;;;;2.30;0.50;;;;;;;;;;5059722;28;20032;-79
2023/04/11 11:11:01;;;;;;;0.63;0.47;;;;;;;;;;5059022;28;20025;-79
2023/04/11 11:13:39;;;;;;;3.35;0.85;;;;;;;;;;5061071;28;20029;-79
2023/04/11 11:16:06;;;;;;;4.90;0.93;;;;;;;;;;5061524;28;20071;-79
2023/04/11 11:18:31;;;;;;;3.08;0.90;;;;;;;;;;5060001;28;20025;-79
2023/04/11 11:20:56;;;;;;;4.45;1.05;;;;;;;;;;5059723;28;20044;-79
2023/04/11 11:23:22;;;;;;;2.70;0.85;;;;;;;;;;5060645;28;20025;-79
2023/04/11 11:25:55;;;;;;;2.10;0.80;;;;;;;;;;5061103;28;20025;-80
2023/04/11 11:28:21;;;;;;;2.38;1.00;;;;;;;;;;5059347;28;20025;-79
2023/04/11 11:30:55;;;;;;;1.25;0.80;;;;;;;;;;5059910;28;20039;-79
2023/04/11 11:33:21;;;;;;;;;;;;;;;;;;5060655;28;20080;-79
2023/04/11 11:35:56;;;;;;;3.95;1.00;;;;;;;;;;5060806;28;19920;-79
2023/04/11 11:38:25;;;;;;;3.83;1.10;;;;;;;;;;5060565;28;20158;-79
2023/04/11 11:40:51;;;;;;;3.05;0.90;;;;;;;;;;5060164;28;20055;-79
2023/04/11 11:43:16;;;;;;;1.65;0.90;;;;;;;;;;5058106;28;20028;-78
2023/04/11 11:45:42;;;;;;;3.10;0.95;;;;;;;;;;5059156;28;20025;-79
2023/04/11 11:48:19;;;;;;;2.63;1.00;;;;;;;;;;5058895;28;20031;-78
2023/04/11 11:50:44;;;;;;;1.67;0.55;;;;;;;;;;5059666;28;20104;-78
2023/04/11 11:53:14;;;;;;;1.80;0.77;;;;;;;;;;5059005;28;20051;-78
2023/04/11 11:55:40;;;;;;;3.22;0.82;;;;;;;;;;5056766;28;20269;-78
2023/04/11 11:58:05;;;;;;;2.78;0.90;;;;;;;;;;5055014;28;20070;-78
2023/04/11 12:00:36;;;;;;;3.85;1.23;;;;;;;;;;5055230;28;20024;-79
2023/04/11 12:03:02;;;;;;;1.95;0.43;;;;;;;;;;5055893;28;20499;-78
2023/04/11 12:05:30;;;;;;;3.05;0.90;;;;;;;;;;5053135;28;20063;-78
2023/04/11 12:07:58;;;;;;;0.80;0.55;;;;;;;;;;5054578;28;20545;-78
2023/04/11 12:10:26;;;;;;;2.15;0.98;;;;;;;;;;5057052;28;20473;-78
2023/04/11 12:12:51;;;;;;;2.95;0.90;;;;;;;;;;5058506;28;20037;-79
2023/04/11 12:15:19;;;;;;;4.20;1.02;;;;;;;;;;5059543;28;20028;-79
2023/04/11 12:17:49;;;;;;;1.73;1.00;;;;;;;;;;5059281;28;20029;-80
2023/04/11 12:20:15;;;;;;;2.00;1.00;;;;;;;;;;5059061;28;20029;-78
2023/04/11 12:22:40;;;;;;;2.95;1.08;;;;;;;;;;5057480;28;20025;-78
2023/04/11 12:25:10;;;;;;;3.95;1.10;;;;;;;;;;5059254;28;20051;-79
2023/04/11 12:27:37;;;;;;;3.35;1.27;;;;;;;;;;5059879;28;20032;-79
2023/04/11 12:30:03;;;;;;;2.75;1.25;;;;;;;;;;5059011;28;20035;-79
2023/04/11 12:32:29;;;;;;;3.22;1.20;;;;;;;;;;5059280;28;20415;-79
2023/04/11 12:34:54;;;;;;;1.65;0.98;;;;;;;;;;5058745;28;20484;-78
2023/04/11 12:37:20;;;;;;;4.05;1.15;;;;;;;;;;5056942;28;20021;-78
2023/04/11 12:39:45;;;;;;;2.78;1.10;;;;;;;;;;5056650;28;20025;-77
2023/04/11 12:42:11;;;;;;;2.22;1.10;;;;;;;;;;5056874;28;20025;-78
2023/04/11 12:44:36;;;;;;;3.95;0.85;;;;;;;;;;5059893;28;20024;-79
2023/04/11 12:47:01;;;;;;;2.20;1.00;;;;;;;;;;5058304;28;20097;-79
2023/04/11 12:49:27;;;;;;;1.60;1.00;;;;;;;;;;5059198;28;20116;-79
2023/04/11 12:51:53;;;;;;;4.20;1.10;;;;;;;;;;5058232;28;20704;-78
2023/04/11 12:54:18;;;;;;;3.95;1.10;;;;;;;;;;5058135;28;20021;-78
2023/04/11 12:56:43;;;;;;;2.00;1.00;;;;;;;;;;5059117;28;20025;-79
2023/04/11 12:59:08;;;;;;;1.92;0.90;;;;;;;;;;5059974;28;20282;-78
2023/04/11 13:01:35;;;;;;;1.77;0.90;;;;;;;;;;5059635;28;20021;-79
2023/04/11 13:04:00;;;;;;;2.67;1.15;;;;;;;;;;5058461;28;20250;-80
2023/04/11 13:06:26;;;;;;;3.42;1.33;;;;;;;;;;5057698;28;20398;-78
2023/04/11 13:08:52;;;;;;;1.77;1.20;;;;;;;;;;5055884;28;20025;-78
2023/04/11 13:11:17;;;;;;;2.83;1.13;;;;;;;;;;5056064;28;20381;-78
2023/04/11 13:13:42;;;;;;;2.13;1.00;;;;;;;;;;5056679;28;20738;-78
2023/04/11 13:16:08;;;;;;;1.52;0.90;;;;;;;;;;5058059;28;20799;-79
2023/04/11 13:18:33;;;;;;;5.30;1.17;;;;;;;;;;5059994;28;20017;-81
2023/04/11 13:20:59;;;;;;;4.57;1.27;;;;;;;;;;5058465;28;20021;-80
2023/04/11 13:23:24;;;;;;;2.30;1.17;;;;;;;;;;5059718;28;20262;-79
2023/04/11 13:25:49;;;;;;;2.50;1.03;;;;;;;;;;5058267;28;20273;-78
2023/04/11 13:28:14;;;;;;;2.92;1.10;;;;;;;;;;5056200;28;20620;-78
2023/04/11 13:30:40;;;;;;;3.47;1.07;;;;;;;;;;5054937;28;20032;-78
2023/04/11 13:33:05;;;;;;;1.48;0.95;;;;;;;;;;5054700;28;20254;-77
2023/04/11 13:35:30;;;;;;;4.05;0.98;;;;;;;;;;5055060;28;20021;-78
2023/04/11 13:37:56;;;;;;;2.67;1.00;;;;;;;;;;5056360;28;20036;-78
2023/04/11 13:40:21;;;;;;;1.45;0.85;;;;;;;;;;5056391;28;20096;-78
2023/04/11 13:42:47;;;;;;;1.33;0.93;;;;;;;;;;5056236;28;20446;-78
2023/04/11 13:45:12;;;;;;;2.55;0.85;;;;;;;;;;5055894;28;20051;-79
2023/04/11 13:47:37;;;;;;;1.90;1.02;;;;;;;;;;5056053;28;20020;-78
2023/04/11 13:50:03;;;;;;;2.95;1.15;;;;;;;;;;5055911;28;20021;-78
2023/04/11 13:52:28;;;;;;;2.20;1.27;;;;;;;;;;5055064;28;20484;-79
2023/04/11 13:54:54;;;;;;;2.45;1.00;;;;;;;;;;5055981;28;20099;-78
2023/04/11 13:57:20;;;;;;;2.63;1.00;;;;;;;;;;5054267;28;20388;-77
2023/04/11 13:59:45;;;;;;;1.85;1.00;;;;;;;;;;5054750;28;20021;-78
2023/04/11 14:02:10;;;;;;;6.13;1.20;;;;;;;;;;5056154;28;20432;-79
2023/04/11 14:04:35;;;;;;;7.47;1.30;;;;;;;;;;5058040;28;20632;-78
2023/04/11 14:07:00;;;;;;;2.05;1.20;;;;;;;;;;5055405;28;20613;-78
2023/04/11 14:09:26;;;;;;;1.70;0.93;;;;;;;;;;5056037;28;20035;-78
2023/04/11 14:11:51;;;;;;;3.43;1.20;;;;;;;;;;5054031;28;20329;-78
2023/04/11 14:14:16;;;;;;;2.45;1.00;;;;;;;;;;5055610;28;20266;-78
2023/04/11 14:16:41;;;;;;;1.40;0.77;;;;;;;;;;5055819;28;20024;-78
2023/04/11 14:19:07;;;;;;;3.97;1.10;;;;;;;;;;5056120;28;20028;-78
2023/04/11 14:21:32;;;;;;;2.97;0.80;;;;;;;;;;5056877;28;20258;-79
2023/04/11 14:23:57;;;;;;;1.77;0.90;;;;;;;;;;5058227;28;20257;-79
2023/04/11 14:26:22;;;;;;;1.63;0.80;;;;;;;;;;5058692;28;20023;-78
2023/04/11 14:28:48;;;;;;;1.10;0.73;;;;;;;;;;5059854;28;20093;-79
2023/04/11 14:31:13;;;;;;;2.37;1.03;;;;;;;;;;5062342;28;20293;-78
2023/04/11 14:33:38;;;;;;;2.13;1.02;;;;;;;;;;5062250;28;20253;-79
2023/04/11 14:36:04;;;;;;;3.80;1.30;;;;;;;;;;5062233;28;20044;-79
2023/04/11 14:38:29;;;;;;;3.40;1.10;;;;;;;;;;5060848;28;20270;-79